罗盘
风向 的 风向 130° Roland Garros Airport 12/30
风: 11 kt, 4 beaufort

10 kt

5 kt
改变
0 1.000 2.000 3.000 4.000 5.000
FEW 2.900 ft
SCT 3.500 ft
BKN 4.900 ft
METAR FMEE 110000Z AUTO 13011KT 9999 FEW029/// SCT035/// BKN049/// 18/15 Q1023 TEMPO 14020G30KT 4500 SHRA

METAR Roland Garros Airport - FMEE/RUN

Roland Garros Airport是St Denis,Reunion中的大型机场。 该机场有2条跑道: 12/30 和 14/32. 该领域的国际民航组织标志是FMEE 它的国际航空运输协会代码是RUN.

这份报告是针对2022年8月11日 04:00, 当地时间在Roland Garros Airport进行的。

机场观察

风向为130°,速度为11 kt。

可见度为10 km 或者更多。

有几云在2.900 ft的高度, 疏云,零星散落的云朵在3.500 ft的高度 和 碎云在4.900 ft的高度。 破损或更高的上限为4.900 ft。

温度和风寒是18 °C。 露点为15 °C,相对湿度为83%。 海平面上的气压为1023 hPa (QNH)。

发展趋势

  • 暂时的

    风来自140°方向,速度为20 kt。 预计30 kt阵风。 可见性变为4,5 km。 重大天气:阵雨 雨。

白天

今天,太阳从06:43升起,在18:03降落。 这适用于Roland Garros Airport,世界夏令时可能有所不同。 当地时间与世界标准时间之间的时差为+4 小时。 夏令时目前正在进行中。

公司介绍

在这个机场,你可以找到飞行俱乐部。 本场上唯一已知的公司是Aéroclub Roland Garros。

体会

到Vliegles.nl去找飞行课程,跳伞和其他飞行体验。 浏览页面,了解Roland Garros Airport附近所有可用的活动。 你也可以使用搜索功能来寻找你所在地附近的特定飞行课程、跳伞或其他飞行体验。

跑道

Id 标题 侧风 逆风 侧风 %
12/30 102°-282° 5 kt 10 kt 47 %
14/32 116°-296° 3 kt 11 kt 24 %

逆风成分最大的方向会被突出显示,并用于横风计算。 这并不一定意味着这个方向在使用。

乌云

2.900 ft FEW 几云
3.500 ft SCT 疏云,零星散落的云朵
4.900 ft BKN 碎云

温度 & 天气

温度 18 °C
露点 15 °C
相对湿度 83%
Kp-index 0  

白天

日出
06:43 (2h 16m)
中午
12:23
日落
18:03

小工具

你想在你的网站上有一个关于Roland Garros Airport的当前航空天气(METAR)的小部件吗?

</> 显示HTML代码

我们和第三方通过cookies跟踪您在我们网站上的上网行为。如果您继续,我们认为您同意我们的cookie政策。 了解更多